Time;durP1;ratioP1;P1;durP2;ratioP2;P2;SDS_P1;SDS_P2;PMS_P1;PMS_P2;Temp;Humidity;BMP_temperature;BMP_pressure;BME280_temperature;BME280_humidity;BME280_pressure;Samples;Min_cycle;Max_cycle;Signal;HPM_P1;HPM_P2
2023/07/16 00:01:52;;;;;;;5.28;2.10;;;;;;;18.49;100.00;100799.38;4923197;29;20096;-62
2023/07/16 00:04:19;;;;;;;6.38;2.17;;;;;;;18.42;100.00;100820.59;4923356;29;20099;-62
2023/07/16 00:06:45;;;;;;;3.15;2.10;;;;;;;18.42;100.00;100817.94;4920912;28;20052;-62
2023/07/16 00:09:12;;;;;;;8.85;2.42;;;;;;;18.39;100.00;100815.69;4929605;29;20059;-62
2023/07/16 00:11:38;;;;;;;8.18;2.45;;;;;;;18.38;100.00;100822.84;4925845;29;20062;-64
2023/07/16 00:14:05;;;;;;;4.72;2.28;;;;;;;18.41;100.00;100823.47;4925483;29;20545;-63
2023/07/16 00:16:31;;;;;;;7.43;2.50;;;;;;;18.32;100.00;100828.09;4923107;29;20055;-62
2023/07/16 00:18:58;;;;;;;7.53;2.70;;;;;;;18.35;100.00;100817.09;4918870;29;20059;-64
2023/07/16 00:21:25;;;;;;;10.70;2.67;;;;;;;18.32;100.00;100823.59;4932389;29;20122;-62
2023/07/16 00:23:51;;;;;;;8.55;2.83;;;;;;;18.35;100.00;100830.38;4918312;29;20062;-62
2023/07/16 00:26:17;;;;;;;7.43;2.70;;;;;;;18.28;100.00;100822.38;4928072;29;20090;-63
2023/07/16 00:28:44;;;;;;;7.70;2.80;;;;;;;18.28;100.00;100813.59;4920503;29;20058;-63
2023/07/16 00:31:10;;;;;;;8.23;3.25;;;;;;;18.31;100.00;100823.81;4921897;29;20056;-64
2023/07/16 00:33:37;;;;;;;6.00;2.70;;;;;;;18.31;100.00;100819.31;4920407;29;20095;-65
2023/07/16 00:36:04;;;;;;;11.05;3.22;;;;;;;18.37;100.00;100826.50;4917051;29;20060;-63
2023/07/16 00:38:31;;;;;;;9.82;3.42;;;;;;;18.32;100.00;100828.91;4927543;29;20059;-63
2023/07/16 00:40:57;;;;;;;10.88;3.25;;;;;;;18.30;100.00;100820.31;4920149;29;20052;-63
2023/07/16 00:43:24;;;;;;;8.32;3.22;;;;;;;18.28;100.00;100822.38;4923447;29;20146;-63
2023/07/16 00:45:50;;;;;;;7.38;3.25;;;;;;;18.28;100.00;100816.25;4911204;28;20530;-64
2023/07/16 00:48:18;;;;;;;7.20;2.70;;;;;;;18.22;100.00;100823.16;4922797;29;20060;-64
2023/07/16 00:50:45;;;;;;;6.65;3.15;;;;;;;18.13;100.00;100824.31;4924524;29;20083;-63
2023/07/16 00:53:12;;;;;;;8.07;3.13;;;;;;;18.13;100.00;100825.16;4920820;29;20058;-63
2023/07/16 00:55:39;;;;;;;8.05;3.30;;;;;;;18.12;100.00;100820.84;4926289;29;20059;-64
2023/07/16 00:58:06;;;;;;;10.90;2.90;;;;;;;18.09;100.00;100815.97;4915574;29;20066;-64
2023/07/16 01:00:38;;;;;;;7.30;2.67;;;;;;;18.20;100.00;100819.06;4923916;29;20043;-69
2023/07/16 01:03:06;;;;;;;10.23;3.10;;;;;;;18.15;100.00;100815.16;4917689;29;20051;-68
2023/07/16 01:05:54;;;;;;;10.48;2.55;;;;;;;18.10;100.00;100822.06;4926683;29;20051;-69
2023/07/16 01:08:30;;;;;;;10.35;2.75;;;;;;;18.07;100.00;100822.47;4921772;29;20051;-69
2023/07/16 01:10:57;;;;;;;7.35;2.63;;;;;;;18.02;100.00;100824.91;4926970;29;20052;-69
2023/07/16 01:13:25;;;;;;;8.52;2.53;;;;;;;18.01;100.00;100828.56;4918701;29;20200;-68
2023/07/16 01:15:51;;;;;;;8.75;2.35;;;;;;;17.96;100.00;100821.19;4920070;29;20106;-68
2023/07/16 01:18:18;;;;;;;6.90;2.60;;;;;;;17.93;100.00;100827.69;4925550;29;20052;-68
2023/07/16 01:20:44;;;;;;;7.97;2.60;;;;;;;17.92;100.00;100819.94;4919333;28;20568;-69
2023/07/16 01:23:26;;;;;;;9.63;2.90;;;;;;;17.92;100.00;100820.75;4926603;29;20090;-69
2023/07/16 01:26:25;;;;;;;7.13;2.70;;;;;;;17.88;100.00;100830.13;4917376;29;20048;-69
2023/07/16 01:29:07;;;;;;;10.60;3.33;;;;;;;17.80;100.00;100822.28;4924206;29;20050;-68
2023/07/16 01:31:34;;;;;;;7.32;2.50;;;;;;;17.87;100.00;100825.81;4921162;29;20047;-69
2023/07/16 01:34:03;;;;;;;8.20;2.72;;;;;;;17.81;100.00;100831.06;4923624;29;20500;-69
2023/07/16 01:36:31;;;;;;;6.35;2.17;;;;;;;17.71;100.00;100826.09;4926878;29;20066;-69
2023/07/16 01:38:58;;;;;;;7.00;2.50;;;;;;;17.68;100.00;100831.75;4915889;29;20123;-69
2023/07/16 01:41:24;;;;;;;7.45;2.55;;;;;;;17.59;100.00;100836.41;4924384;29;20568;-68
2023/07/16 01:43:51;;;;;;;11.93;2.70;;;;;;;17.50;100.00;100818.97;4918582;28;20158;-67
2023/07/16 01:46:18;;;;;;;6.05;2.30;;;;;;;17.40;100.00;100837.88;4929532;29;20490;-67
2023/07/16 01:48:45;;;;;;;10.07;2.80;;;;;;;17.34;100.00;100834.16;4925301;29;20055;-67
2023/07/16 01:51:13;;;;;;;9.45;2.70;;;;;;;17.29;100.00;100833.91;4919990;29;20767;-68
2023/07/16 01:53:41;;;;;;;8.68;3.10;;;;;;;17.21;100.00;100828.75;4921404;29;20066;-67
2023/07/16 01:56:07;;;;;;;8.25;2.50;;;;;;;17.17;100.00;100820.34;4922853;29;20059;-67
2023/07/16 01:58:33;;;;;;;9.60;2.40;;;;;;;17.13;100.00;100829.69;4928880;29;20055;-67
2023/07/16 02:01:00;;;;;;;8.27;2.40;;;;;;;17.10;100.00;100823.94;4919141;29;20067;-67
2023/07/16 02:03:27;;;;;;;9.98;2.60;;;;;;;17.08;100.00;100818.81;4928669;29;20111;-63
2023/07/16 02:05:54;;;;;;;9.27;2.63;;;;;;;17.04;100.00;100825.53;4910981;29;20809;-62
2023/07/16 02:08:20;;;;;;;10.55;3.13;;;;;;;17.01;100.00;100825.88;4920219;29;20062;-62
2023/07/16 02:10:48;;;;;;;8.02;2.47;;;;;;;17.00;100.00;100822.41;4928618;29;20044;-62
2023/07/16 02:13:14;;;;;;;7.65;2.88;;;;;;;17.01;100.00;100820.59;4922854;29;20865;-63
2023/07/16 02:15:42;;;;;;;8.00;2.70;;;;;;;16.95;100.00;100829.28;4931092;29;20185;-62
2023/07/16 02:18:09;;;;;;;7.03;2.78;;;;;;;16.94;100.00;100822.38;4920869;29;20051;-63
2023/07/16 02:20:36;;;;;;;12.88;3.17;;;;;;;16.84;100.00;100824.47;4925752;29;20095;-63
2023/07/16 02:23:02;;;;;;;10.77;2.97;;;;;;;16.91;100.00;100823.53;4922740;29;20487;-62
2023/07/16 02:25:29;;;;;;;8.98;2.65;;;;;;;16.84;100.00;100827.97;4930387;29;20055;-63
2023/07/16 02:27:55;;;;;;;10.02;3.28;;;;;;;16.83;100.00;100834.25;4930418;29;20083;-64
2023/07/16 02:30:22;;;;;;;8.90;2.63;;;;;;;16.79;100.00;100828.47;4924555;29;20067;-62
2023/07/16 02:32:48;;;;;;;8.63;2.50;;;;;;;16.83;100.00;100831.63;4922678;29;20055;-63
2023/07/16 02:35:15;;;;;;;11.82;2.60;;;;;;;16.84;100.00;100840.38;4917799;29;20052;-62
2023/07/16 02:37:41;;;;;;;10.60;2.85;;;;;;;16.73;100.00;100844.31;4930433;29;20106;-62
2023/07/16 02:40:08;;;;;;;10.05;3.38;;;;;;;16.69;100.00;100846.50;4924768;29;20532;-63
2023/07/16 02:42:35;;;;;;;11.75;3.17;;;;;;;16.69;100.00;100843.03;4930843;29;20058;-64
2023/07/16 02:45:01;;;;;;;7.30;2.63;;;;;;;16.69;100.00;100848.34;4928146;29;20432;-62
2023/07/16 02:47:27;;;;;;;6.50;3.00;;;;;;;16.69;100.00;100837.75;4922500;28;20501;-64
2023/07/16 02:49:54;;;;;;;10.75;2.78;;;;;;;16.68;100.00;100844.03;4927819;29;20048;-62
2023/07/16 02:52:21;;;;;;;7.43;2.58;;;;;;;16.72;100.00;100840.84;4924561;29;20066;-62
2023/07/16 02:54:47;;;;;;;9.98;2.65;;;;;;;16.72;100.00;100840.84;4926352;29;20456;-62
2023/07/16 02:57:14;;;;;;;7.55;2.88;;;;;;;16.70;100.00;100842.88;4925112;29;20051;-63
2023/07/16 02:59:40;;;;;;;6.05;2.30;;;;;;;16.69;100.00;100843.03;4926617;29;20047;-63
2023/07/16 03:02:06;;;;;;;7.10;2.53;;;;;;;16.70;100.00;100842.03;4925437;29;20477;-63
2023/07/16 03:04:33;;;;;;;9.57;2.72;;;;;;;16.68;100.00;100836.94;4927860;29;20056;-61
2023/07/16 03:06:59;;;;;;;9.40;2.72;;;;;;;16.70;100.00;100839.38;4929842;29;20055;-62
2023/07/16 03:09:26;;;;;;;8.88;2.03;;;;;;;16.72;100.00;100843.50;4924121;29;20055;-62
2023/07/16 03:11:52;;;;;;;8.98;2.50;;;;;;;16.76;100.00;100843.94;4927305;29;20135;-63
2023/07/16 03:14:19;;;;;;;7.40;2.70;;;;;;;16.74;100.00;100838.00;4917457;28;20616;-64
2023/07/16 03:16:45;;;;;;;12.55;3.22;;;;;;;16.69;100.00;100837.75;4925528;29;20052;-63
2023/07/16 03:19:12;;;;;;;6.75;2.15;;;;;;;16.71;100.00;100841.84;4929231;29;20762;-62
2023/07/16 03:21:39;;;;;;;10.55;3.08;;;;;;;16.70;100.00;100842.88;4924718;28;20062;-66
2023/07/16 03:24:05;;;;;;;8.38;2.80;;;;;;;16.62;100.00;100853.53;4927112;29;20577;-63
2023/07/16 03:26:32;;;;;;;9.40;2.78;;;;;;;16.60;100.00;100855.56;4922391;29;20108;-62
2023/07/16 03:28:58;;;;;;;9.85;3.05;;;;;;;16.56;100.00;100855.13;4917839;29;20119;-63
2023/07/16 03:31:25;;;;;;;8.27;3.30;;;;;;;16.52;100.00;100853.00;4921895;29;20047;-63
2023/07/16 03:33:52;;;;;;;14.38;3.33;;;;;;;16.53;100.00;100858.13;4916736;29;20516;-62
2023/07/16 03:36:18;;;;;;;8.80;3.05;;;;;;;16.55;100.00;100857.97;4910500;29;20058;-62
2023/07/16 03:38:45;;;;;;;8.73;3.42;;;;;;;16.61;100.00;100862.50;4921739;29;20052;-63
2023/07/16 03:41:12;;;;;;;8.30;2.92;;;;;;;16.55;100.00;100856.13;4925501;29;20644;-63
2023/07/16 03:43:38;;;;;;;10.55;3.10;;;;;;;16.52;100.00;100853.81;4918805;29;20059;-64
2023/07/16 03:46:08;;;;;;;8.82;3.17;;;;;;;16.53;100.00;100871.38;4914484;29;20055;-64
2023/07/16 03:48:35;;;;;;;8.88;2.83;;;;;;;16.52;100.00;100875.00;4929584;29;20057;-62
2023/07/16 03:51:02;;;;;;;8.20;2.60;;;;;;;16.49;100.00;100875.41;4923515;29;20081;-63
2023/07/16 03:53:28;;;;;;;8.68;4.45;;;;;;;16.51;100.00;100880.50;4926020;29;20082;-63
2023/07/16 03:55:55;;;;;;;9.43;3.05;;;;;;;16.52;100.00;100871.56;4920053;28;20051;-63
2023/07/16 03:58:22;;;;;;;7.57;3.05;;;;;;;16.50;100.00;100879.66;4926940;29;20555;-63
2023/07/16 04:00:50;;;;;;;8.95;3.40;;;;;;;16.50;100.00;100878.84;4922388;29;20051;-62
2023/07/16 04:03:16;;;;;;;7.00;3.05;;;;;;;16.50;100.00;100886.81;4929288;29;20047;-62
2023/07/16 04:05:43;;;;;;;8.98;2.83;;;;;;;16.50;100.00;100877.03;4926539;29;20650;-64
2023/07/16 04:08:09;;;;;;;11.63;3.67;;;;;;;16.45;100.00;100882.06;4925237;29;20501;-63
2023/07/16 04:10:36;;;;;;;7.90;3.28;;;;;;;16.47;100.00;100892.47;4924689;29;20044;-63
2023/07/16 04:13:03;;;;;;;9.13;2.90;;;;;;;16.44;100.00;100898.13;4921213;29;20085;-63
2023/07/16 04:15:29;;;;;;;8.15;3.33;;;;;;;16.39;100.00;100896.84;4927617;29;20051;-63
2023/07/16 04:17:56;;;;;;;9.85;3.10;;;;;;;16.36;100.00;100902.50;4918349;29;20051;-64
2023/07/16 04:20:22;;;;;;;7.72;2.80;;;;;;;16.40;100.00;100902.97;4926228;29;20058;-62
2023/07/16 04:22:49;;;;;;;7.63;3.15;;;;;;;16.34;100.00;100912.44;4921508;29;20113;-63
2023/07/16 04:25:15;;;;;;;7.25;2.90;;;;;;;16.36;100.00;100905.16;4922359;29;20090;-64
2023/07/16 04:27:43;;;;;;;9.52;3.30;;;;;;;16.34;100.00;100915.09;4926437;29;20059;-62
2023/07/16 04:30:10;;;;;;;9.20;3.70;;;;;;;16.34;100.00;100909.81;4923068;29;20059;-63
2023/07/16 04:32:37;;;;;;;10.70;3.53;;;;;;;16.36;100.00;100912.28;4929701;29;20051;-63
2023/07/16 04:35:04;;;;;;;12.45;3.33;;;;;;;16.28;100.00;100910.53;4920008;29;20066;-63
2023/07/16 04:37:30;;;;;;;11.18;3.45;;;;;;;16.29;100.00;100925.44;4920955;29;20746;-62
2023/07/16 04:39:57;;;;;;;10.23;3.97;;;;;;;16.25;100.00;100921.50;4920421;29;20064;-64
2023/07/16 04:42:23;;;;;;;11.80;3.67;;;;;;;16.27;100.00;100923.94;4920401;29;20055;-63
2023/07/16 04:44:49;;;;;;;9.75;4.20;;;;;;;16.28;100.00;100929.06;4926959;29;20075;-64
2023/07/16 04:47:16;;;;;;;9.48;3.85;;;;;;;16.28;100.00;100930.91;4925704;29;20083;-63
2023/07/16 04:49:43;;;;;;;10.43;3.95;;;;;;;16.28;100.00;100926.41;4927876;29;20492;-63
2023/07/16 04:52:09;;;;;;;9.73;3.72;;;;;;;16.37;100.00;100932.47;4917128;29;20070;-64
2023/07/16 04:54:39;;;;;;;13.45;3.88;;;;;;;16.34;100.00;100922.22;4927542;29;20091;-64
2023/07/16 04:57:06;;;;;;;13.00;3.80;;;;;;;16.35;100.00;100943.22;4927942;29;20047;-63
2023/07/16 04:59:34;;;;;;;9.53;3.73;;;;;;;16.34;100.00;100940.75;4905196;29;20394;-62
2023/07/16 05:02:04;;;;;;;9.13;3.58;;;;;;;16.36;100.00;100946.69;4925236;29;20337;-63
2023/07/16 05:04:31;;;;;;;11.82;4.00;;;;;;;16.29;100.00;100940.47;4918846;29;20114;-62
2023/07/16 05:06:58;;;;;;;10.43;3.90;;;;;;;16.27;100.00;100950.41;4924205;29;20103;-63
2023/07/16 05:09:24;;;;;;;9.48;3.60;;;;;;;16.26;100.00;100965.47;4918073;29;20056;-63
2023/07/16 05:11:51;;;;;;;8.57;3.88;;;;;;;16.29;100.00;100966.94;4928009;29;20044;-63
2023/07/16 05:14:17;;;;;;;9.90;4.00;;;;;;;16.25;100.00;100969.13;4923353;29;20110;-62
2023/07/16 05:16:44;;;;;;;8.68;3.95;;;;;;;16.29;100.00;100959.84;4910885;29;20349;-62
2023/07/16 05:19:11;;;;;;;8.05;3.80;;;;;;;16.30;100.00;100976.53;4923853;29;20058;-64
2023/07/16 05:21:37;;;;;;;7.32;3.55;;;;;;;16.28;100.00;100973.25;4918851;29;20086;-63
2023/07/16 05:24:04;;;;;;;11.48;4.22;;;;;;;16.29;100.00;100972.22;4928921;29;20106;-62
2023/07/16 05:26:31;;;;;;;12.90;4.50;;;;;;;16.28;100.00;100971.41;4920860;29;20135;-63
2023/07/16 05:28:57;;;;;;;10.48;4.43;;;;;;;16.28;100.00;100978.53;4925974;29;20063;-63
2023/07/16 05:31:23;;;;;;;13.93;4.40;;;;;;;16.30;100.00;100974.69;4923972;29;20103;-62
2023/07/16 05:33:50;;;;;;;12.27;4.45;;;;;;;16.28;100.00;100976.69;4913902;29;20432;-63
2023/07/16 05:36:16;;;;;;;13.60;4.13;;;;;;;16.34;100.00;100978.63;4927807;29;20461;-63
2023/07/16 05:38:43;;;;;;;10.63;4.07;;;;;;;16.38;100.00;100989.69;4922956;29;20405;-62
2023/07/16 05:41:10;;;;;;;9.60;4.15;;;;;;;16.33;100.00;100987.59;4928134;29;20198;-62
2023/07/16 05:43:36;;;;;;;13.48;4.28;;;;;;;16.43;100.00;100981.22;4918247;29;20581;-65
2023/07/16 05:46:05;;;;;;;12.70;4.15;;;;;;;16.37;100.00;100994.16;4926493;29;20060;-63
2023/07/16 05:48:31;;;;;;;13.30;5.25;;;;;;;16.41;100.00;100984.84;4934235;29;20044;-63
2023/07/16 05:50:58;;;;;;;12.90;4.43;;;;;;;16.40;100.00;100991.13;4926112;29;21224;-62
2023/07/16 05:53:24;;;;;;;9.68;4.50;;;;;;;16.47;100.00;101003.69;4932491;29;20768;-62
2023/07/16 05:55:52;;;;;;;12.05;4.45;;;;;;;16.46;100.00;101010.78;4926746;29;20067;-62
2023/07/16 05:58:18;;;;;;;12.73;4.20;;;;;;;16.48;100.00;100994.72;4926292;29;20115;-62
2023/07/16 06:00:45;;;;;;;10.32;4.18;;;;;;;16.47;100.00;101001.84;4920371;29;20126;-61
2023/07/16 06:03:11;;;;;;;9.52;4.55;;;;;;;16.48;100.00;101003.47;4930455;29;20106;-63
2023/07/16 06:05:37;;;;;;;14.85;5.28;;;;;;;16.55;100.00;101000.94;4932132;29;20044;-62
2023/07/16 06:08:04;;;;;;;16.10;4.43;;;;;;;16.55;100.00;101006.25;4925407;29;20052;-62
2023/07/16 06:10:34;;;;;;;13.20;5.18;;;;;;;16.59;100.00;101012.81;4929996;29;20055;-63
2023/07/16 06:13:00;;;;;;;13.13;5.65;;;;;;;16.56;100.00;101002.56;4917239;29;20083;-63
2023/07/16 06:15:26;;;;;;;13.13;5.80;;;;;;;16.60;100.00;101007.34;4928103;29;20090;-63
2023/07/16 06:17:53;;;;;;;10.65;4.55;;;;;;;16.64;100.00;101001.66;4928570;29;20111;-63
2023/07/16 06:20:19;;;;;;;10.60;5.40;;;;;;;16.68;100.00;101008.25;4925454;28;20055;-63
2023/07/16 06:22:46;;;;;;;10.95;5.30;;;;;;;16.69;100.00;101021.31;4931479;29;20052;-63
2023/07/16 06:25:13;;;;;;;16.00;4.45;;;;;;;16.73;100.00;101013.81;4919061;29;20534;-65
2023/07/16 06:27:39;;;;;;;10.75;4.95;;;;;;;16.72;100.00;101013.00;4925388;29;20051;-65
2023/07/16 06:30:06;;;;;;;9.90;4.40;;;;;;;16.80;100.00;101012.91;4918867;29;20101;-63
2023/07/16 06:32:33;;;;;;;15.18;5.50;;;;;;;16.82;100.00;101007.47;4932390;29;20051;-63
2023/07/16 06:34:59;;;;;;;14.50;5.35;;;;;;;16.89;100.00;101007.56;4927151;29;20075;-66
2023/07/16 06:37:26;;;;;;;11.45;4.80;;;;;;;16.92;100.00;101015.97;4927663;29;20495;-63
2023/07/16 06:39:53;;;;;;;11.73;5.03;;;;;;;16.93;100.00;101014.94;4926689;29;20527;-63
2023/07/16 06:42:19;;;;;;;11.45;5.25;;;;;;;16.92;100.00;101017.78;4920340;29;20055;-64
2023/07/16 06:44:46;;;;;;;10.73;4.50;;;;;;;17.02;100.00;101020.97;4932614;29;20060;-64
2023/07/16 06:47:12;;;;;;;11.68;5.22;;;;;;;17.05;100.00;101027.72;4933208;28;20102;-63
2023/07/16 06:49:39;;;;;;;13.98;5.18;;;;;;;17.06;100.00;101024.91;4931839;29;20055;-63
2023/07/16 06:52:06;;;;;;;13.48;5.60;;;;;;;17.16;100.00;101033.38;4931122;29;20043;-62
2023/07/16 06:54:32;;;;;;;11.85;4.97;;;;;;;17.19;99.70;101034.88;4917840;29;20546;-64
2023/07/16 06:56:59;;;;;;;11.60;5.65;;;;;;;17.22;100.00;101031.84;4926505;29;20146;-63
2023/07/16 06:59:25;;;;;;;12.57;5.78;;;;;;;17.19;98.64;101032.22;4920437;28;20103;-62
2023/07/16 07:01:52;;;;;;;13.38;5.03;;;;;;;17.23;100.00;101024.69;4927388;29;20058;-63
2023/07/16 07:04:18;;;;;;;12.98;5.50;;;;;;;17.30;100.00;101023.78;4925780;29;20489;-62
2023/07/16 07:06:45;;;;;;;12.23;5.82;;;;;;;17.31;99.41;101043.16;4926447;29;20051;-63
2023/07/16 07:09:11;;;;;;;10.23;5.18;;;;;;;17.33;97.76;101038.50;4925761;29;20567;-63
2023/07/16 07:11:38;;;;;;;13.48;5.10;;;;;;;17.41;98.24;101034.94;4924825;29;20139;-64
2023/07/16 07:14:04;;;;;;;10.10;4.47;;;;;;;17.43;98.41;101046.97;4929559;29;20115;-62
2023/07/16 07:16:31;;;;;;;14.85;4.88;;;;;;;17.47;98.14;101050.91;4924913;29;20052;-63
2023/07/16 07:18:57;;;;;;;14.38;5.28;;;;;;;17.47;98.01;101042.94;4928687;29;20158;-63
2023/07/16 07:21:24;;;;;;;10.00;4.82;;;;;;;17.56;98.20;101041.84;4918465;28;20052;-63
2023/07/16 07:23:51;;;;;;;11.25;4.97;;;;;;;17.61;97.71;101056.38;4925779;29;20063;-64
2023/07/16 07:26:17;;;;;;;11.32;5.47;;;;;;;17.67;98.77;101047.66;4930423;29;20078;-64
2023/07/16 07:28:44;;;;;;;14.38;5.43;;;;;;;17.77;99.91;101054.28;4920501;29;20055;-64
2023/07/16 07:31:10;;;;;;;11.30;5.53;;;;;;;17.70;94.65;101052.56;4929011;29;20065;-63
2023/07/16 07:33:37;;;;;;;13.23;5.75;;;;;;;17.79;97.39;101062.88;4921420;29;20047;-65
2023/07/16 07:36:03;;;;;;;13.90;5.40;;;;;;;17.89;96.33;101067.09;4921607;29;20107;-65
2023/07/16 07:38:30;;;;;;;12.93;5.70;;;;;;;17.80;93.42;101098.22;4920611;29;20058;-64
2023/07/16 07:40:56;;;;;;;13.90;5.53;;;;;;;17.85;94.64;101073.78;4925202;29;20109;-64
2023/07/16 07:43:23;;;;;;;12.25;5.43;;;;;;;17.93;95.00;101082.44;4929764;29;20096;-64
2023/07/16 07:45:49;;;;;;;11.98;5.25;;;;;;;18.02;95.52;101082.34;4925552;29;20078;-65
2023/07/16 07:48:16;;;;;;;14.38;5.40;;;;;;;17.96;92.66;101076.78;4926310;29;20059;-63
2023/07/16 07:50:42;;;;;;;13.38;5.30;;;;;;;18.06;94.27;101071.16;4914587;29;20058;-63
2023/07/16 07:53:09;;;;;;;10.90;4.75;;;;;;;18.15;95.29;101077.13;4927339;29;20059;-64
2023/07/16 07:55:35;;;;;;;12.02;5.60;;;;;;;18.30;94.88;101082.38;4923647;29;20055;-64
2023/07/16 07:58:02;;;;;;;11.15;5.43;;;;;;;18.35;93.38;101101.25;4926724;29;20052;-64
2023/07/16 08:00:28;;;;;;;15.50;5.55;;;;;;;18.37;91.08;101085.94;4928092;29;20607;-65
2023/07/16 08:02:55;;;;;;;13.23;5.97;;;;;;;18.33;91.10;101082.03;4917970;29;20493;-65
2023/07/16 08:05:22;;;;;;;12.98;6.15;;;;;;;18.26;88.69;101086.44;4906677;29;20047;-64
2023/07/16 08:07:48;;;;;;;13.57;5.50;;;;;;;18.36;91.72;101093.06;4920142;29;20055;-65
2023/07/16 08:10:15;;;;;;;11.30;5.28;;;;;;;18.36;90.47;101084.28;4927404;29;20816;-66
2023/07/16 08:12:41;;;;;;;14.60;5.78;;;;;;;18.47;91.26;101094.38;4917662;29;20091;-64
2023/07/16 08:15:13;;;;;;;14.68;5.32;;;;;;;18.60;90.25;101083.03;4922733;29;21142;-65
2023/07/16 08:17:44;;;;;;;12.00;5.93;;;;;;;18.67;88.13;101088.41;4918527;29;21097;-65
2023/07/16 08:20:11;;;;;;;12.80;6.03;;;;;;;18.60;85.03;101098.97;4918095;29;20178;-65
2023/07/16 08:22:38;;;;;;;13.33;6.17;;;;;;;18.62;85.66;101096.13;4916827;29;20106;-66
2023/07/16 08:25:06;;;;;;;13.65;4.93;;;;;;;18.81;88.50;101103.47;4919670;29;20052;-63
2023/07/16 08:27:33;;;;;;;13.07;4.93;;;;;;;18.90;86.69;101099.66;4928053;29;20181;-63
2023/07/16 08:29:59;;;;;;;14.45;5.78;;;;;;;18.96;84.63;101103.38;4917277;28;20118;-64
2023/07/16 08:32:25;;;;;;;15.43;5.03;;;;;;;19.01;84.57;101122.19;4924126;29;20091;-64
2023/07/16 08:34:52;;;;;;;9.07;4.63;;;;;;;19.08;83.05;101124.91;4912148;29;20056;-64
2023/07/16 08:37:18;;;;;;;11.77;5.15;;;;;;;19.17;83.62;101129.88;4921521;29;20098;-64
2023/07/16 08:39:45;;;;;;;10.70;4.65;;;;;;;19.22;83.40;101105.34;4926036;29;20135;-64
2023/07/16 08:42:12;;;;;;;15.60;5.25;;;;;;;19.29;83.72;101108.06;4923239;28;20112;-64
2023/07/16 08:44:39;;;;;;;9.43;5.20;;;;;;;19.47;83.02;101108.34;4925666;29;20082;-65
2023/07/16 08:47:06;;;;;;;14.20;5.80;;;;;;;19.63;80.77;101106.34;4925810;29;20138;-64
2023/07/16 08:49:34;;;;;;;11.48;5.85;;;;;;;19.93;80.35;101110.38;4923011;29;20059;-65
2023/07/16 08:52:01;;;;;;;12.25;5.00;;;;;;;19.99;77.24;101113.22;4927654;29;20464;-64
2023/07/16 08:54:28;;;;;;;10.90;5.43;;;;;;;20.14;76.01;101114.69;4922977;28;20122;-65
2023/07/16 08:56:55;;;;;;;14.20;5.20;;;;;;;20.55;77.59;101104.91;4924944;29;20552;-65
2023/07/16 08:59:22;;;;;;;10.07;5.00;;;;;;;20.70;75.95;101116.19;4917730;29;20079;-64
2023/07/16 09:01:51;;;;;;;9.05;4.80;;;;;;;20.93;74.99;101126.44;4928737;29;20289;-67
2023/07/16 09:04:18;;;;;;;14.25;5.32;;;;;;;20.62;72.15;101124.41;4914144;29;20083;-65
2023/07/16 09:06:45;;;;;;;11.55;5.60;;;;;;;20.67;73.01;101116.59;4923779;29;20118;-65
2023/07/16 09:09:22;;;;;;;10.73;5.30;;;;;;;20.74;73.28;101130.75;4928527;29;20067;-65
2023/07/16 09:11:49;;;;;;;13.20;5.60;;;;;;;20.98;69.89;101114.31;4911947;29;20131;-64
2023/07/16 09:14:20;;;;;;;15.05;5.32;;;;;;;20.71;70.29;101123.16;4910390;29;20115;-64
2023/07/16 09:16:50;;;;;;;11.68;5.13;;;;;;;20.70;70.83;101115.38;4923072;29;20051;-66
2023/07/16 09:19:18;;;;;;;8.18;4.70;;;;;;;20.69;72.05;101127.06;4928997;29;20115;-64
2023/07/16 09:21:49;;;;;;;10.75;5.60;;;;;;;20.87;69.95;101113.91;4921452;29;20079;-65
2023/07/16 09:24:16;;;;;;;11.05;4.90;;;;;;;21.05;70.25;101131.09;4923867;29;20154;-64
2023/07/16 09:26:54;;;;;;;13.60;5.45;;;;;;;21.06;68.35;101140.75;4920642;29;20114;-64
2023/07/16 09:29:21;;;;;;;9.15;4.78;;;;;;;20.97;68.14;101134.00;4919957;28;20059;-64
2023/07/16 09:31:55;;;;;;;10.63;4.20;;;;;;;21.00;69.60;101137.06;4929141;29;20114;-63
2023/07/16 09:34:21;;;;;;;12.38;5.10;;;;;;;20.97;72.40;101144.66;4921705;29;20059;-64
2023/07/16 09:36:49;;;;;;;9.40;4.43;;;;;;;20.88;70.28;101152.88;4910254;29;20424;-67
2023/07/16 09:39:19;;;;;;;8.18;4.03;;;;;;;20.64;71.47;101142.84;4915824;29;20062;-65
2023/07/16 09:41:47;;;;;;;13.90;5.00;;;;;;;20.44;72.47;101150.81;4922278;29;20131;-64
2023/07/16 09:44:15;;;;;;;8.52;4.25;;;;;;;20.46;73.28;101148.75;4927962;29;20485;-65
2023/07/16 09:46:42;;;;;;;11.40;5.10;;;;;;;20.30;73.63;101152.63;4921861;28;20059;-65
2023/07/16 09:49:09;;;;;;;13.13;5.10;;;;;;;20.25;74.92;101153.25;4926618;29;20158;-66
2023/07/16 09:51:36;;;;;;;10.13;4.90;;;;;;;20.20;75.84;101149.53;4918270;29;20056;-65
2023/07/16 09:54:04;;;;;;;8.95;4.65;;;;;;;20.19;75.02;101161.22;4925420;29;20127;-64
2023/07/16 09:56:43;;;;;;;8.30;4.90;;;;;;;20.22;76.52;101166.13;4920399;29;20091;-64
2023/07/16 09:59:14;;;;;;;10.73;4.82;;;;;;;20.19;76.50;101155.88;4928187;29;20063;-66
2023/07/16 10:01:41;;;;;;;12.13;4.85;;;;;;;20.29;76.42;101167.00;4926505;29;20055;-66
2023/07/16 10:04:15;;;;;;;8.90;4.80;;;;;;;20.26;76.24;101154.06;4926569;29;20106;-64
2023/07/16 10:06:57;;;;;;;10.20;4.78;;;;;;;20.25;77.44;101166.56;4924924;29;20047;-67
2023/07/16 10:09:51;;;;;;;10.43;4.72;;;;;;;20.41;77.18;101159.22;4912358;29;20094;-64
2023/07/16 10:12:19;;;;;;;12.50;5.32;;;;;;;20.46;73.86;101157.56;4928887;29;20465;-65
2023/07/16 10:14:47;;;;;;;;;;;;;;;20.53;72.68;101166.38;4922233;29;20107;-65
2023/07/16 10:17:19;;;;;;;12.70;5.50;;;;;;;20.67;73.22;101167.25;4931670;29;19930;-65
2023/07/16 10:19:47;;;;;;;9.40;4.30;;;;;;;20.80;71.77;101160.28;4916611;28;20528;-64
2023/07/16 10:22:14;;;;;;;;;;;;;;;20.77;71.60;101166.03;4898299;29;20079;-64
2023/07/16 10:24:41;;;;;;;10.80;4.72;;;;;;;21.02;72.20;101163.53;4925529;29;19977;-67
2023/07/16 10:27:07;;;;;;;11.70;4.50;;;;;;;20.82;71.93;101185.72;4906774;29;20075;-64
2023/07/16 10:29:36;;;;;;;9.25;4.70;;;;;;;20.84;72.39;101188.19;4935059;29;20453;-63
2023/07/16 10:32:07;;;;;;;9.00;4.43;;;;;;;20.90;72.70;101198.00;4925634;29;20056;-64
2023/07/16 10:34:36;;;;;;;9.10;4.68;;;;;;;20.72;70.10;101193.31;4912009;29;20062;-64
2023/07/16 10:37:03;;;;;;;12.75;4.53;;;;;;;20.79;71.41;101195.97;4917855;29;20711;-64
2023/07/16 10:39:30;;;;;;;14.05;5.13;;;;;;;20.75;70.60;101214.19;4927329;29;20071;-64
2023/07/16 10:41:57;;;;;;;8.40;4.13;;;;;;;20.76;71.43;101210.53;4927814;29;20051;-64
2023/07/16 10:44:23;;;;;;;8.55;4.35;;;;;;;20.80;70.76;101218.94;4925532;29;20054;-64
2023/07/16 10:46:51;;;;;;;10.45;4.70;;;;;;;20.73;72.40;101219.72;4932690;29;20107;-64
2023/07/16 10:49:27;;;;;;;10.70;4.63;;;;;;;20.65;72.37;101208.47;4916040;29;20063;-64
2023/07/16 10:51:54;;;;;;;12.23;4.75;;;;;;;20.69;71.85;101205.16;4906749;29;20151;-64
2023/07/16 10:54:21;;;;;;;9.10;4.40;;;;;;;20.92;69.67;101206.63;4905327;29;20053;-64
2023/07/16 10:56:48;;;;;;;9.63;4.53;;;;;;;21.04;70.54;101202.31;4926838;29;20094;-67
2023/07/16 10:59:15;;;;;;;7.95;3.78;;;;;;;21.19;68.72;101198.59;4924555;29;20060;-64
2023/07/16 11:01:42;;;;;;;11.43;4.15;;;;;;;21.39;68.98;101203.91;4924530;29;20075;-64
2023/07/16 11:04:09;;;;;;;10.37;4.60;;;;;;;21.24;68.29;101191.59;4928436;29;20131;-64
2023/07/16 11:06:35;;;;;;;9.68;3.97;;;;;;;21.30;69.51;101200.63;4923359;29;20293;-64
2023/07/16 11:09:07;;;;;;;10.38;4.70;;;;;;;21.28;68.46;101205.34;4928856;29;20088;-65
2023/07/16 11:11:34;;;;;;;10.70;4.30;;;;;;;21.25;68.75;101209.25;4922585;29;20083;-64
2023/07/16 11:14:06;;;;;;;7.72;4.20;;;;;;;21.14;67.42;101217.88;4926002;29;20048;-65
2023/07/16 11:16:35;;;;;;;10.10;4.28;;;;;;;21.08;67.41;101208.06;4917244;29;20071;-64
2023/07/16 11:19:04;;;;;;;11.07;4.10;;;;;;;21.00;68.31;101201.09;4924366;29;20082;-64